SILO ALERT LOG


Silo ID Alert Type Alert Message Silo Type Points Depth (mm) Strength Temperature (°C) Humidity (%) Height (mm) Volume (㎥) Weight (t) Flag Time
DJHNR03 Temperature 온도센서 상태 이상 호퍼 0 15500 0 -999 -999 -119 0 0 31 2024-01-10 17:39:23.000
DJHNR12 Humidity 습도센서 측정값이 80% 초과 호퍼 0 10500 0 0.3 81.8 -120 0 0 31 2024-01-10 17:39:23.000
DJSAD03 Humidity 습도센서 측정값이 80% 초과 449 1652 6117 3.3 84.5 7127 295.055 186.534 0 2024-01-10 16:39:40.000
DJSAD01 Humidity 습도센서 측정값이 80% 초과 451 1591 7282 1.9 88 7188 297.59 188.137 0 2024-01-10 16:39:40.000
DJSAD02 Humidity 습도센서 측정값이 80% 초과 383 1136 4294 2.6 87.5 7643 316.396 200.025 11 2024-01-10 16:39:39.000
DJSAD12 Humidity 습도센서 측정값이 80% 초과 0 7700 0 3.4 86.3 -120 -17.075 0 31 2024-01-10 16:39:33.000
DJHNR11 Temperature 온도센서 측정값이 0도 미만 호퍼 232 3226 1053 -0.8 74.7 7153 100.346 63.439 11 2024-01-10 16:39:33.000
DJSSD05 Temperature 온도센서 측정값이 0도 미만 845 2554 4875 -45.4 43.8 5525 768.988 486.154 0 2024-01-10 16:39:33.000
DJSSD04 Temperature 온도센서 상태 이상 0 8200 0 -999 -999 -120 -16.702 0 31 2024-01-10 16:39:33.000
DJSSD01 Humidity 습도센서 측정값이 80% 초과 795 2560 4645 6.2 81.8 5519 768.267 485.698 0 2024-01-10 16:39:33.000
DJHNR01 Humidity 습도센서 측정값이 80% 초과 호퍼 472 4306 5032 5.6 99.9 11073 472.969 299.011 13 2024-01-10 16:39:32.000
DJDJD04 Humidity 습도센서 측정값이 80% 초과 275 4205 4359 5.4 80.8 3474 420.998 266.155 11 2024-01-10 16:39:32.000
DJSAD07 Humidity 습도센서 측정값이 80% 초과 104 1541 3300 4.6 85.5 6038 859.289 543.243 29 2024-01-10 16:39:31.000
DJSAD18 Humidity 습도센서 측정값이 80% 초과 117 1443 5777 5.2 80.8 6136 611.096 386.335 11 2024-01-10 16:39:31.000
DJSSD09 Temperature 온도센서 측정값이 0도 미만 120 2820 2984 -45.4 0 4859 676.308 427.562 11 2024-01-10 16:39:31.000
DJSSD12 Temperature 온도센서 상태 이상 호퍼 0 11350 0 -999 -999 -120 0 0 31 2024-01-10 16:39:25.000
DJHNR12 Humidity 습도센서 측정값이 80% 초과 호퍼 0 10500 0 0.6 81.7 -120 0 0 31 2024-01-10 16:39:24.000
DJHNR03 Temperature 온도센서 상태 이상 호퍼 0 15500 0 -999 -999 -119 0 0 31 2024-01-10 16:39:23.000
DJSAD02 Humidity 습도센서 측정값이 80% 초과 379 1139 4294 2.7 87.4 7640 316.282 199.953 11 2024-01-10 15:39:39.000
DJSAD08 Humidity 습도센서 측정값이 80% 초과 36 4089 4227 8.2 84.9 3490 496.664 313.991 29 2024-01-10 15:39:39.000

[첫 페이지] [10016] [10017] [10018] [10019] 10020 [10021] [10022] [10023] [10024] [마지막 페이지]